Terminal Aerodrome Forecast
Issued by NWS Jackson, MS

Home | Current Version | Previous Version | Text Only | Print | Product List | Glossary On
Versions: 1 2 3 4 5 6 7 8 9 10 11 12 13
994
FTUS44 KJAN 292323
TAFGWO
TAF
KGWO 292323Z 3000/3024 15020G32KT P6SM VCTS BKN050CB BKN250
     FM300200 15021G29KT P6SM BKN025
     FM300900 16016G24KT P6SM VCTS OVC025CB
     FM301700 18013KT 3SM +TSRA BR BKN025CB OVC050
     FM302000 18011KT 4SM TSRA BR OVC035CB=

USA.gov is the U.S. government's official web portal to all federal, state and local government web resources and services.